createdAt,value
2018-04-06T00:02:10.225Z,58.22
2018-04-06T00:04:41.900Z,57.44
2018-04-06T00:07:13.197Z,56.91
2018-04-06T00:09:44.476Z,57.03
2018-04-06T00:12:15.905Z,56.29
2018-04-06T00:14:47.206Z,56.97
2018-04-06T00:17:18.293Z,56.83
2018-04-06T00:19:49.408Z,56.96
2018-04-06T00:22:21.173Z,56.64
2018-04-06T00:24:52.666Z,56.43
2018-04-06T00:27:23.897Z,56.15
2018-04-06T00:29:55.576Z,55.76
2018-04-06T00:32:27.172Z,56.18
2018-04-06T00:34:58.644Z,57.15
2018-04-06T00:37:30.125Z,57.08
2018-04-06T00:40:01.457Z,57.38
2018-04-06T00:42:32.815Z,57.05
2018-04-06T00:45:04.665Z,56.99
2018-04-06T00:47:36.314Z,57.07
2018-04-06T00:50:07.862Z,56.24
2018-04-06T00:52:39.112Z,56.64
2018-04-06T00:55:10.644Z,56.94
2018-04-06T00:57:42.327Z,56.50
2018-04-06T01:00:13.701Z,56.62
2018-04-06T01:02:45.580Z,56.88
2018-04-06T01:05:17.197Z,56.91
2018-04-06T01:07:48.749Z,57.17
2018-04-06T01:10:20.197Z,56.28
2018-04-06T01:12:51.617Z,56.20
2018-04-06T01:15:22.749Z,56.19
2018-04-06T01:17:53.906Z,56.56
2018-04-06T01:20:25.689Z,56.74
2018-04-06T01:22:57.176Z,56.69
2018-04-06T01:25:28.705Z,56.75
2018-04-06T01:28:00.637Z,56.74
2018-04-06T01:30:31.913Z,56.33
2018-04-06T01:33:03.461Z,56.58
2018-04-06T01:35:35.225Z,56.45
2018-04-06T01:38:06.948Z,56.64
2018-04-06T01:40:38.189Z,56.54
2018-04-06T01:43:09.760Z,56.52
2018-04-06T01:45:41.415Z,56.76
2018-04-06T01:48:13.351Z,56.58
2018-04-06T01:50:44.873Z,56.67
2018-04-06T01:53:16.221Z,56.78
2018-04-06T01:55:47.682Z,56.84
2018-04-06T01:58:19.130Z,56.87
2018-04-06T02:00:50.553Z,56.73
2018-04-06T02:03:22.074Z,57.25
2018-04-06T02:05:53.012Z,57.49
2018-04-06T02:08:24.498Z,57.51
2018-04-06T02:10:55.988Z,57.29
2018-04-06T02:13:27.329Z,56.85
2018-04-06T02:15:58.680Z,56.57
2018-04-06T02:18:30.368Z,57.18
2018-04-06T02:21:01.872Z,57.21
2018-04-06T02:23:33.594Z,57.41
2018-04-06T02:26:05.320Z,57.80
2018-04-06T02:28:36.701Z,58.75
2018-04-06T02:31:07.498Z,57.54
2018-04-06T02:33:39.258Z,57.33
2018-04-06T02:36:10.080Z,57.69
2018-04-06T02:38:41.436Z,58.16
2018-04-06T02:41:13.365Z,57.97
2018-04-06T02:43:44.853Z,57.36
2018-04-06T02:46:15.978Z,57.38
2018-04-06T02:48:47.021Z,58.82
2018-04-06T02:51:17.873Z,58.44
2018-04-06T02:53:48.965Z,59.07
2018-04-06T02:56:20.185Z,58.55
2018-04-06T02:58:51.185Z,58.56
2018-04-06T03:01:22.724Z,57.30
2018-04-06T03:03:53.577Z,57.27
2018-04-06T03:06:25.164Z,57.73
2018-04-06T03:08:56.119Z,57.50
2018-04-06T03:11:26.936Z,57.38
2018-04-06T03:13:58.057Z,57.46
2018-04-06T03:16:28.933Z,57.70
2018-04-06T03:18:59.781Z,58.12
2018-04-06T03:21:30.924Z,58.34
2018-04-06T03:24:01.858Z,58.09
2018-04-06T03:26:33.181Z,57.44
2018-04-06T03:29:04.294Z,57.27
2018-04-06T03:31:35.570Z,57.52
2018-04-06T03:34:07.074Z,57.77
2018-04-06T03:36:38.505Z,57.68
2018-04-06T03:39:09.669Z,57.85
2018-04-06T03:41:40.809Z,57.97
2018-04-06T03:44:13.290Z,57.93
2018-04-06T03:46:44.669Z,57.97
2018-04-06T03:49:15.715Z,58.00
2018-04-06T03:51:46.796Z,57.90
2018-04-06T03:54:17.896Z,58.49
2018-04-06T03:56:49.684Z,58.53
2018-04-06T03:59:24.228Z,58.58
2018-04-06T04:01:55.510Z,59.02
2018-04-06T04:04:27.288Z,58.14
2018-04-06T04:06:58.041Z,58.01
2018-04-06T04:09:29.101Z,58.14
2018-04-06T04:12:00.474Z,58.28
2018-04-06T04:14:32.054Z,58.56
2018-04-06T04:17:02.921Z,58.49
2018-04-06T04:19:33.780Z,58.70
2018-04-06T04:22:04.710Z,58.88
2018-04-06T04:24:38.053Z,58.90
2018-04-06T04:27:09.580Z,58.97
2018-04-06T04:29:41.129Z,58.87
2018-04-06T04:32:12.472Z,58.99
2018-04-06T04:34:44.165Z,58.41
2018-04-06T04:37:15.745Z,58.67
2018-04-06T04:39:46.865Z,58.48
2018-04-06T04:42:18.116Z,58.69
2018-04-06T04:44:49.394Z,58.51
2018-04-06T04:47:20.641Z,58.45
2018-04-06T04:49:51.441Z,59.07
2018-04-06T04:52:22.573Z,58.41
2018-04-06T04:54:53.985Z,58.32
2018-04-06T04:57:24.869Z,58.68
2018-04-06T04:59:56.233Z,58.24
2018-04-06T05:02:28.069Z,58.61
2018-04-06T05:04:59.477Z,58.66
2018-04-06T05:07:30.909Z,58.63
2018-04-06T05:10:02.652Z,58.77
2018-04-06T05:12:33.517Z,58.90
2018-04-06T05:15:05.162Z,59.28
2018-04-06T05:17:36.093Z,58.91
2018-04-06T05:20:08.049Z,58.97
2018-04-06T05:22:39.377Z,59.11
2018-04-06T05:25:10.594Z,59.68
2018-04-06T05:27:42.248Z,59.89
2018-04-06T05:30:13.445Z,60.11
2018-04-06T05:32:44.782Z,60.06
2018-04-06T05:35:16.094Z,59.61
2018-04-06T05:37:47.058Z,59.92
2018-04-06T05:40:19.077Z,59.87
2018-04-06T05:42:50.258Z,60.20
2018-04-06T05:45:21.085Z,59.98
2018-04-06T05:47:52.237Z,60.20
2018-04-06T05:50:23.902Z,59.87
2018-04-06T05:52:55.917Z,60.25
2018-04-06T05:55:27.055Z,59.81
2018-04-06T05:57:58.821Z,59.63
2018-04-06T06:00:29.856Z,59.95
2018-04-06T06:03:02.246Z,59.87
2018-04-06T06:05:37.961Z,60.30
2018-04-06T06:08:09.099Z,59.80
2018-04-06T06:10:40.825Z,60.04
2018-04-06T06:13:11.629Z,59.88
2018-04-06T06:15:43.225Z,58.82
2018-04-06T06:18:14.971Z,59.82
2018-04-06T06:20:45.791Z,59.25
2018-04-06T06:23:16.818Z,59.12
2018-04-06T06:25:47.906Z,58.90
2018-04-06T06:28:19.294Z,59.09
2018-04-06T06:30:50.519Z,59.74
2018-04-06T06:33:21.849Z,59.29
2018-04-06T06:35:53.469Z,59.14
2018-04-06T06:38:25.141Z,58.82
2018-04-06T06:40:56.214Z,58.48
2018-04-06T06:43:27.233Z,58.53
2018-04-06T06:45:58.419Z,57.66
2018-04-06T06:48:29.752Z,58.22
2018-04-06T06:51:00.598Z,57.42
2018-04-06T06:53:31.809Z,57.39
2018-04-06T06:58:38.037Z,57.00
2018-04-06T07:01:09.360Z,55.69
2018-04-06T07:03:40.489Z,56.88
2018-04-06T07:06:11.764Z,56.60
2018-04-06T07:08:42.566Z,55.08
2018-04-06T07:11:13.387Z,55.37
2018-04-06T07:13:44.645Z,54.41
2018-04-06T07:16:17.158Z,53.32
2018-04-06T07:18:48.608Z,51.62
2018-04-06T07:21:19.758Z,50.64
2018-04-06T07:23:50.660Z,50.15
2018-04-06T07:26:21.538Z,49.71
2018-04-06T07:28:52.641Z,48.55
2018-04-06T07:31:23.413Z,47.98
2018-04-06T07:33:54.256Z,47.68
2018-04-06T07:36:25.387Z,45.98
2018-04-06T07:38:56.511Z,46.36
2018-04-06T07:41:27.845Z,45.69
2018-04-06T07:43:58.812Z,45.70
2018-04-06T07:46:29.685Z,45.50
2018-04-06T07:49:00.824Z,46.28
2018-04-06T07:51:31.613Z,46.49
2018-04-06T07:54:02.439Z,46.41
2018-04-06T07:56:33.615Z,47.39
2018-04-06T07:59:04.461Z,45.50
2018-04-06T08:01:35.360Z,44.49
2018-04-06T08:04:06.582Z,44.76
2018-04-06T08:06:38.179Z,46.68
2018-04-06T08:09:09.477Z,47.36
2018-04-06T08:11:40.518Z,46.81
2018-04-06T08:14:11.495Z,46.70
2018-04-06T08:16:43.537Z,45.22
2018-04-06T08:19:14.325Z,46.16
2018-04-06T08:21:45.297Z,46.03
2018-04-06T08:24:16.628Z,45.98
2018-04-06T08:26:47.606Z,49.46
2018-04-06T08:29:18.567Z,48.48
2018-04-06T08:31:49.709Z,46.00
2018-04-06T08:34:20.660Z,46.30
2018-04-06T08:36:51.957Z,43.92
2018-04-06T08:39:22.771Z,42.12
2018-04-06T08:41:54.226Z,42.26
2018-04-06T08:44:25.102Z,43.04
2018-04-06T08:46:56.056Z,42.68
2018-04-06T08:49:27.485Z,43.75
2018-04-06T08:51:58.485Z,45.51
2018-04-06T08:54:29.377Z,43.19
2018-04-06T08:57:00.641Z,43.30
2018-04-06T08:59:31.428Z,42.00
2018-04-06T09:02:02.491Z,41.76
2018-04-06T09:04:33.667Z,40.37
2018-04-06T09:07:04.721Z,41.47
2018-04-06T09:09:35.962Z,42.23
2018-04-06T09:12:06.785Z,42.11
2018-04-06T09:14:37.655Z,39.89
2018-04-06T09:17:09.312Z,41.05
2018-04-06T09:19:40.121Z,41.10
2018-04-06T09:22:16.693Z,39.73
2018-04-06T09:24:47.754Z,41.27
2018-04-06T09:27:18.597Z,40.80
2018-04-06T09:29:49.321Z,39.63
2018-04-06T09:32:20.431Z,40.98
2018-04-06T09:34:51.265Z,40.92
2018-04-06T09:37:22.142Z,38.86
2018-04-06T09:39:53.309Z,40.44
2018-04-06T09:42:24.210Z,42.72
2018-04-06T09:44:55.059Z,40.65
2018-04-06T09:47:26.205Z,39.88
2018-04-06T09:49:57.079Z,37.65
2018-04-06T09:52:27.966Z,40.84
2018-04-06T09:54:59.313Z,40.85
2018-04-06T09:57:30.438Z,41.47
2018-04-06T10:00:01.598Z,39.81
2018-04-06T10:02:36.326Z,38.87
2018-04-06T10:05:07.317Z,40.42
2018-04-06T10:07:38.401Z,39.72
2018-04-06T10:10:09.229Z,39.93
2018-04-06T10:12:40.071Z,42.25
2018-04-06T10:15:11.601Z,42.41
2018-04-06T10:17:42.705Z,41.66
2018-04-06T10:20:13.849Z,39.63
2018-04-06T10:22:44.726Z,38.84
2018-04-06T10:25:15.992Z,40.24
2018-04-06T10:27:47.195Z,40.84
2018-04-06T10:30:18.146Z,38.75
2018-04-06T10:32:49.155Z,35.30
2018-04-06T10:35:20.254Z,37.63
2018-04-06T10:37:51.118Z,39.03
2018-04-06T10:40:22.001Z,37.29
2018-04-06T10:42:53.435Z,36.08
2018-04-06T10:47:46.984Z,35.22
2018-04-06T10:50:18.714Z,34.41
2018-04-06T10:52:49.514Z,32.72
2018-04-06T10:55:20.828Z,31.35
2018-04-06T10:57:52.272Z,30.50
2018-04-06T11:00:23.285Z,31.37
2018-04-06T11:02:54.262Z,30.39
2018-04-06T11:05:26.105Z,32.63
2018-04-06T11:07:56.996Z,31.10
2018-04-06T11:10:28.161Z,30.04
2018-04-06T11:12:59.152Z,29.97
2018-04-06T11:15:34.141Z,30.22
2018-04-06T11:18:05.524Z,29.97
2018-04-06T11:20:36.643Z,30.45
2018-04-06T11:23:07.830Z,29.19
2018-04-06T11:25:38.788Z,28.99
2018-04-06T11:28:10.002Z,28.44
2018-04-06T11:30:41.231Z,28.43
2018-04-06T11:33:12.041Z,28.91
2018-04-06T11:35:43.982Z,29.38
2018-04-06T11:38:14.840Z,29.11
2018-04-06T11:40:45.829Z,29.09
2018-04-06T11:43:17.563Z,29.54
2018-04-06T11:45:48.577Z,30.66
2018-04-06T11:48:19.609Z,29.60
2018-04-06T11:50:50.998Z,29.90
2018-04-06T11:53:22.881Z,29.76
2018-04-06T11:55:53.672Z,30.57
2018-04-06T11:58:25.477Z,29.22
2018-04-06T12:00:57.361Z,29.83
2018-04-06T12:03:28.403Z,30.74
2018-04-06T12:06:00.593Z,28.80
2018-04-06T12:08:31.969Z,28.82
2018-04-06T12:11:05.348Z,29.19
2018-04-06T12:13:36.210Z,29.07
2018-04-06T12:16:07.745Z,28.32
2018-04-06T12:18:39.535Z,29.39
2018-04-06T12:21:10.908Z,29.41
2018-04-06T12:23:43.536Z,28.29
2018-04-06T12:26:15.414Z,27.18
2018-04-06T12:28:46.886Z,28.23
2018-04-06T12:31:17.949Z,27.49
2018-04-06T12:36:26.729Z,28.77
2018-04-06T12:39:00.646Z,27.12
2018-04-06T12:41:32.034Z,27.27
2018-04-06T12:44:03.469Z,28.58
2018-04-06T12:46:36.331Z,27.18
2018-04-06T12:49:07.182Z,27.29
2018-04-06T12:51:38.733Z,27.11
2018-04-06T12:54:09.992Z,29.04
2018-04-06T12:56:41.150Z,28.92
2018-04-06T12:59:13.125Z,27.74
2018-04-06T13:01:44.597Z,27.39
2018-04-06T13:05:23.445Z,26.32
2018-04-06T13:07:54.773Z,26.10
2018-04-06T13:10:25.790Z,26.83
2018-04-06T13:13:02.777Z,26.32
2018-04-06T13:15:34.775Z,26.21
2018-04-06T13:18:07.540Z,28.95
2018-04-06T13:20:39.433Z,26.74
2018-04-06T13:23:11.505Z,26.39
2018-04-06T13:25:44.120Z,26.74
2018-04-06T13:28:20.591Z,26.42
2018-04-06T13:30:54.323Z,25.86
2018-04-06T13:33:25.963Z,27.03
2018-04-06T13:35:57.079Z,27.07
2018-04-06T13:38:28.277Z,27.17
2018-04-06T13:40:59.210Z,26.47
2018-04-06T13:43:30.628Z,27.66
2018-04-06T13:46:02.270Z,28.01
2018-04-06T13:48:33.253Z,28.31
2018-04-06T13:51:04.564Z,27.49
2018-04-06T13:53:35.685Z,27.47
2018-04-06T13:56:06.808Z,28.21
2018-04-06T13:58:38.324Z,28.12
2018-04-06T14:01:09.966Z,28.02
2018-04-06T14:03:42.401Z,27.44
2018-04-06T14:06:13.609Z,29.07
2018-04-06T14:08:45.292Z,29.51
2018-04-06T14:11:17.088Z,30.25
2018-04-06T14:13:47.945Z,29.16
2018-04-06T14:16:19.347Z,28.46
2018-04-06T14:18:50.541Z,29.18
2018-04-06T14:21:21.500Z,29.14
2018-04-06T14:23:52.314Z,28.53
2018-04-06T14:26:24.211Z,28.86
2018-04-06T14:28:55.764Z,29.75
2018-04-06T14:31:27.157Z,29.04
2018-04-06T14:33:58.171Z,29.31
2018-04-06T14:36:29.831Z,29.16
2018-04-06T14:39:01.041Z,28.26
2018-04-06T14:41:32.379Z,28.82
2018-04-06T14:44:03.289Z,29.12
2018-04-06T14:46:34.450Z,29.46
2018-04-06T14:49:05.967Z,29.15
2018-04-06T14:51:36.849Z,28.91
2018-04-06T14:54:08.556Z,29.42
2018-04-06T14:56:39.816Z,28.93
2018-04-06T14:59:11.466Z,28.76
2018-04-06T15:01:42.565Z,29.06
2018-04-06T15:04:15.266Z,29.31
2018-04-06T15:06:47.066Z,29.14
2018-04-06T15:09:18.151Z,28.50
2018-04-06T15:11:49.348Z,29.11
2018-04-06T15:14:20.408Z,28.94
2018-04-06T15:16:51.346Z,29.14
2018-04-06T15:19:23.630Z,29.21
2018-04-06T15:21:54.528Z,29.45
2018-04-06T15:24:25.414Z,29.17
2018-04-06T15:26:56.574Z,28.93
2018-04-06T15:29:27.468Z,28.31
2018-04-06T15:31:58.295Z,28.67
2018-04-06T15:34:30.833Z,29.36
2018-04-06T15:37:04.842Z,29.65
2018-04-06T15:39:36.029Z,29.49
2018-04-06T15:42:06.899Z,29.82
2018-04-06T15:44:37.817Z,28.95
2018-04-06T15:47:09.169Z,29.20
2018-04-06T15:49:41.427Z,30.06
2018-04-06T15:52:17.103Z,29.50
2018-04-06T15:54:48.819Z,30.05
2018-04-06T15:57:19.694Z,29.99
2018-04-06T15:59:50.683Z,30.16
2018-04-06T16:02:22.246Z,29.28
2018-04-06T16:04:53.372Z,29.41
2018-04-06T16:07:25.579Z,30.13
2018-04-06T16:09:57.634Z,29.89
2018-04-06T16:12:28.442Z,29.96
2018-04-06T16:14:59.808Z,29.92
2018-04-06T16:17:30.901Z,30.42
2018-04-06T16:20:01.772Z,31.01
2018-04-06T16:22:32.613Z,30.84
2018-04-06T16:25:03.811Z,30.69
2018-04-06T16:27:34.645Z,30.75
2018-04-06T16:30:05.423Z,31.47
2018-04-06T16:32:36.500Z,31.91
2018-04-06T16:35:07.893Z,31.85
2018-04-06T16:37:39.014Z,31.82
2018-04-06T16:40:10.897Z,32.49
2018-04-06T16:42:43.397Z,32.44
2018-04-06T16:45:14.666Z,32.74
2018-04-06T16:47:45.841Z,32.89
2018-04-06T16:50:17.127Z,32.96
2018-04-06T16:52:53.508Z,33.65
2018-04-06T16:55:24.457Z,33.80
2018-04-06T16:57:58.314Z,33.91
2018-04-06T17:00:31.782Z,34.26
2018-04-06T17:03:15.934Z,34.37
2018-04-06T17:05:51.896Z,34.58
2018-04-06T17:08:31.972Z,34.40
2018-04-06T17:11:07.131Z,34.97
2018-04-06T17:13:41.788Z,34.99
2018-04-06T17:16:16.785Z,35.29
2018-04-06T17:18:51.703Z,34.99
2018-04-06T17:21:24.395Z,35.20
2018-04-06T17:24:02.704Z,35.39
2018-04-06T17:26:37.228Z,35.48
2018-04-06T17:29:11.020Z,35.50
2018-04-06T17:31:47.932Z,35.75
2018-04-06T17:34:22.835Z,36.00
2018-04-06T17:37:00.209Z,36.57
2018-04-06T17:39:34.904Z,37.08
2018-04-06T17:42:07.788Z,36.76
2018-04-06T17:44:51.405Z,36.91
2018-04-06T17:47:30.838Z,38.31
2018-04-06T17:50:06.938Z,38.27
2018-04-06T17:52:40.576Z,38.91
2018-04-06T17:55:20.442Z,39.37
2018-04-06T17:57:53.943Z,39.30
2018-04-06T18:00:27.621Z,39.71
2018-04-06T18:03:00.525Z,40.02
2018-04-06T18:05:35.508Z,40.54
2018-04-06T18:08:09.136Z,41.26
2018-04-06T18:10:40.824Z,42.28
2018-04-06T18:13:13.768Z,42.33
2018-04-06T18:15:47.522Z,41.89
2018-04-06T18:18:20.520Z,41.76
2018-04-06T18:20:51.349Z,42.62
2018-04-06T18:23:22.334Z,42.25
2018-04-06T18:25:53.459Z,41.41
2018-04-06T18:28:24.381Z,41.58
2018-04-06T18:30:57.961Z,41.23
2018-04-06T18:33:29.801Z,41.33
2018-04-06T18:36:02.579Z,40.91
2018-04-06T18:38:33.706Z,41.07
2018-04-06T18:41:04.591Z,41.04
2018-04-06T18:43:35.487Z,41.59
2018-04-06T18:46:06.648Z,41.35
2018-04-06T18:48:37.684Z,41.43
2018-04-06T18:51:08.649Z,41.67
2018-04-06T18:53:39.813Z,41.45
2018-04-06T18:56:13.725Z,41.69
2018-04-06T18:58:46.523Z,41.46
2018-04-06T19:01:17.357Z,42.11
2018-04-06T19:03:48.180Z,41.46
2018-04-06T19:06:19.790Z,41.76
2018-04-06T19:08:50.685Z,41.76
2018-04-06T19:11:22.931Z,41.96
2018-04-06T19:13:57.589Z,42.91
2018-04-06T19:16:30.014Z,42.63
2018-04-06T19:19:04.690Z,42.21
2018-04-06T19:21:46.972Z,42.15
2018-04-06T19:24:18.784Z,43.39
2018-04-06T19:26:49.989Z,43.51
2018-04-06T19:29:21.446Z,43.18
2018-04-06T19:31:52.511Z,43.24
2018-04-06T19:34:26.516Z,42.93
2018-04-06T19:36:57.354Z,42.58
2018-04-06T19:39:28.545Z,42.54
2018-04-06T19:42:01.760Z,43.24
2018-04-06T19:44:33.412Z,43.61
2018-04-06T19:47:06.831Z,43.53
2018-04-06T19:49:38.880Z,43.29
2018-04-06T19:52:11.720Z,43.91
2018-04-06T19:54:42.598Z,43.63
2018-04-06T19:57:13.561Z,43.29
2018-04-06T19:59:46.084Z,43.23
2018-04-06T20:02:21.944Z,43.02
2018-04-06T20:04:55.803Z,43.27
2018-04-06T20:07:26.827Z,43.51
2018-04-06T20:10:01.281Z,43.57
2018-04-06T20:12:34.394Z,43.62
2018-04-06T20:15:05.517Z,43.57
2018-04-06T20:17:39.177Z,44.00
2018-04-06T20:20:11.508Z,43.46
2018-04-06T20:22:45.204Z,43.45
2018-04-06T20:25:19.289Z,43.82
2018-04-06T20:27:50.490Z,43.73
2018-04-06T20:30:22.947Z,43.63
2018-04-06T20:32:54.152Z,44.19
2018-04-06T20:35:25.021Z,44.59
2018-04-06T20:37:56.008Z,44.38
2018-04-06T20:40:28.542Z,44.64
2018-04-06T20:43:00.132Z,44.77
2018-04-06T20:45:31.297Z,45.34
2018-04-06T20:48:03.657Z,44.82
2018-04-06T20:50:35.389Z,45.28
2018-04-06T20:53:06.604Z,45.37
2018-04-06T20:55:37.992Z,45.74
2018-04-06T20:58:08.928Z,46.04
2018-04-06T21:00:40.227Z,45.63
2018-04-06T21:03:11.204Z,45.68
2018-04-06T21:05:42.169Z,45.35
2018-04-06T21:08:13.525Z,45.66
2018-04-06T21:10:44.480Z,45.28
2018-04-06T21:13:15.628Z,45.41
2018-04-06T21:15:46.490Z,46.46
2018-04-06T21:18:17.505Z,45.91
2018-04-06T21:20:48.727Z,46.36
2018-04-06T21:23:19.709Z,46.04
2018-04-06T21:25:50.637Z,45.79
2018-04-06T21:28:21.854Z,45.93
2018-04-06T21:30:52.892Z,46.16
2018-04-06T21:33:23.750Z,46.64
2018-04-06T21:35:54.932Z,46.78
2018-04-06T21:38:25.829Z,46.39
2018-04-06T21:40:57.368Z,46.95
2018-04-06T21:43:28.499Z,47.46
2018-04-06T21:45:59.465Z,47.32
2018-04-06T21:48:30.357Z,47.90
2018-04-06T21:51:01.902Z,47.69
2018-04-06T21:53:32.785Z,47.28
2018-04-06T21:56:06.380Z,48.36
2018-04-06T21:58:38.026Z,49.55
2018-04-06T22:01:09.323Z,48.70
2018-04-06T22:03:40.537Z,49.06
2018-04-06T22:06:11.330Z,48.33
2018-04-06T22:08:42.152Z,48.75
2018-04-06T22:11:13.266Z,48.55
2018-04-06T22:13:44.801Z,47.80
2018-04-06T22:16:15.661Z,47.88
2018-04-06T22:18:48.350Z,48.85
2018-04-06T22:21:22.760Z,48.01
2018-04-06T22:23:55.437Z,47.84
2018-04-06T22:26:27.468Z,47.46
2018-04-06T22:29:00.103Z,47.67
2018-04-06T22:31:33.543Z,47.71
2018-04-06T22:34:07.257Z,47.81
2018-04-06T22:36:39.998Z,47.73
2018-04-06T22:39:13.411Z,47.62
2018-04-06T22:41:47.148Z,47.40
2018-04-06T22:44:19.132Z,47.45
2018-04-06T22:46:52.392Z,47.75
2018-04-06T22:49:25.462Z,48.27
2018-04-06T22:51:58.641Z,49.75
2018-04-06T22:54:32.048Z,49.36
2018-04-06T22:57:05.026Z,50.68
2018-04-06T22:59:38.326Z,50.78
2018-04-06T23:02:11.721Z,50.97
2018-04-06T23:04:45.756Z,49.83
2018-04-06T23:07:19.997Z,50.78
2018-04-06T23:09:52.275Z,50.32
2018-04-06T23:12:24.825Z,50.53
2018-04-06T23:14:57.880Z,50.15
2018-04-06T23:17:30.809Z,49.76
2018-04-06T23:20:03.443Z,49.21
2018-04-06T23:22:37.047Z,50.12
2018-04-06T23:25:09.667Z,49.63
2018-04-06T23:27:43.486Z,48.97
2018-04-06T23:30:16.684Z,49.02
2018-04-06T23:32:50.138Z,48.26
2018-04-06T23:35:23.034Z,47.87
2018-04-06T23:37:55.244Z,47.87
2018-04-06T23:40:27.744Z,48.00
2018-04-06T23:42:59.855Z,47.85
2018-04-06T23:45:32.441Z,47.55
2018-04-06T23:48:05.896Z,47.76
2018-04-06T23:50:38.066Z,47.73
2018-04-06T23:53:14.093Z,47.73
2018-04-06T23:55:46.888Z,47.75
2018-04-06T23:58:19.279Z,47.24
